Apalachin, New York
Current Conditions -  °F | °C
As of 1:11 PM on Friday 19 Dec 2014 (Local Time) from KBGM Reporting Station
Overcast Overcast  
Wind Chill: -12°   Ceiling: 1300
Heat Index: -6°   Visibility: 10mi
Dew Point: -8°   Wind: 10mph
Humidity: 85%   Direction: 310°NW
Pressure: 30.04"   Gusts: NA
Location:  42.07°N, 76.15°W
Report Text: KBGM 191811Z 31009KT 10SM BKN013 OVC019 M06/M08 A3004 RMK AO2 T10561078
Loading
Personal Weather Stations






























Interactive Weather Map New forecast layout! Learn more

10-Day Weather Forecast

Advertisements
Track Severe Weather on mobile